createdAt,value
2018-07-24T00:00:53.599Z,98469.75
2018-07-24T00:03:22.834Z,98477.70
2018-07-24T00:05:52.239Z,98472.30
2018-07-24T00:08:21.403Z,98478.59
2018-07-24T00:10:50.594Z,98474.16
2018-07-24T00:13:19.832Z,98475.37
2018-07-24T00:15:49.240Z,98473.56
2018-07-24T00:18:18.396Z,98472.12
2018-07-24T00:20:47.603Z,98468.13
2018-07-24T00:23:16.788Z,98471.31
2018-07-24T00:25:46.020Z,98465.67
2018-07-24T00:28:15.280Z,98463.94
2018-07-24T00:30:44.535Z,98469.19
2018-07-24T00:33:13.808Z,98461.91
2018-07-24T00:35:43.040Z,98465.91
2018-07-24T00:38:12.476Z,98466.43
2018-07-24T00:40:41.835Z,98465.91
2018-07-24T00:43:11.119Z,98464.75
2018-07-24T00:45:40.248Z,98462.80
2018-07-24T00:48:09.423Z,98464.08
2018-07-24T00:50:38.599Z,98469.50
2018-07-24T00:53:08.007Z,98463.59
2018-07-24T00:55:37.170Z,98461.45
2018-07-24T00:58:06.559Z,98464.91
2018-07-24T01:00:35.712Z,98460.91
2018-07-24T01:03:04.908Z,98454.31
2018-07-24T01:05:34.176Z,98454.48
2018-07-24T01:08:03.391Z,98453.80
2018-07-24T01:10:32.696Z,97965.69
2018-07-24T01:13:01.908Z,98453.60
2018-07-24T01:15:32.563Z,98454.58
2018-07-24T01:18:01.840Z,98452.16
2018-07-24T01:20:32.053Z,98455.34
2018-07-24T01:23:02.355Z,98451.80
2018-07-24T01:25:31.508Z,98440.73
2018-07-24T01:28:00.740Z,98443.71
2018-07-24T01:30:29.916Z,98446.37
2018-07-24T01:32:59.080Z,98453.62
2018-07-24T01:35:28.245Z,98445.34
2018-07-24T01:37:57.452Z,98449.72
2018-07-24T01:40:26.629Z,98448.59
2018-07-24T01:42:55.772Z,98444.79
2018-07-24T01:45:24.898Z,98440.33
2018-07-24T01:47:54.694Z,98442.28
2018-07-24T01:50:23.903Z,98443.66
2018-07-24T01:52:53.060Z,98447.20
2018-07-24T01:55:22.204Z,98440.84
2018-07-24T01:57:51.406Z,98442.97
2018-07-24T02:00:20.545Z,98438.21
2018-07-24T02:02:49.690Z,98443.48
2018-07-24T02:05:18.881Z,98442.81
2018-07-24T02:07:48.117Z,98441.27
2018-07-24T02:10:17.330Z,98440.18
2018-07-24T02:12:46.517Z,98437.79
2018-07-24T02:15:15.725Z,98435.73
2018-07-24T02:17:45.920Z,98434.67
2018-07-24T02:20:15.098Z,98431.95
2018-07-24T02:22:44.301Z,98435.43
2018-07-24T02:25:13.533Z,98422.62
2018-07-24T02:27:42.669Z,98428.31
2018-07-24T02:30:11.863Z,98433.51
2018-07-24T02:32:41.060Z,98437.43
2018-07-24T02:35:10.354Z,98431.22
2018-07-24T02:37:39.588Z,98433.84
2018-07-24T02:40:08.798Z,98425.84
2018-07-24T02:42:37.980Z,98428.63
2018-07-24T02:45:08.301Z,98431.00
2018-07-24T02:47:37.528Z,98436.04
2018-07-24T02:50:06.806Z,98434.12
2018-07-24T02:52:36.020Z,98435.47
2018-07-24T02:55:05.308Z,98449.63
2018-07-24T02:57:34.496Z,98430.86
2018-07-24T03:00:03.689Z,98430.56
2018-07-24T03:02:32.879Z,98429.53
2018-07-24T03:05:02.078Z,98431.00
2018-07-24T03:07:31.269Z,98432.91
2018-07-24T03:10:00.457Z,98430.86
2018-07-24T03:12:29.624Z,98432.20
2018-07-24T03:14:58.860Z,98426.56
2018-07-24T03:17:28.099Z,98431.14
2018-07-24T03:19:57.356Z,98425.38
2018-07-24T03:22:26.597Z,98429.73
2018-07-24T03:24:55.853Z,98430.48
2018-07-24T03:27:25.087Z,98430.94
2018-07-24T03:29:54.224Z,98432.47
2018-07-24T03:32:23.521Z,98434.11
2018-07-24T03:34:52.806Z,98435.75
2018-07-24T03:37:21.984Z,98429.91
2018-07-24T03:39:51.116Z,98436.16
2018-07-24T03:42:20.273Z,98437.05
2018-07-24T03:44:49.437Z,98439.50
2018-07-24T03:47:18.625Z,98438.72
2018-07-24T03:49:47.851Z,98438.81
2018-07-24T03:52:17.088Z,98438.23
2018-07-24T03:54:46.212Z,98437.48
2018-07-24T03:57:15.433Z,98434.48
2018-07-24T03:59:44.657Z,98436.50
2018-07-24T04:02:13.982Z,98441.38
2018-07-24T04:04:43.188Z,98441.65
2018-07-24T04:07:12.473Z,98442.09
2018-07-24T04:09:41.640Z,98440.59
2018-07-24T04:12:10.821Z,98437.66
2018-07-24T04:14:40.058Z,98441.72
2018-07-24T04:17:09.296Z,98439.88
2018-07-24T04:19:38.540Z,98438.03
2018-07-24T04:22:07.801Z,98440.31
2018-07-24T04:24:36.980Z,98439.16
2018-07-24T04:27:06.520Z,98438.12
2018-07-24T04:29:35.944Z,98436.71
2018-07-24T04:32:05.129Z,98438.42
2018-07-24T04:34:34.256Z,98438.72
2018-07-24T04:37:03.464Z,98440.75
2018-07-24T04:39:32.777Z,98439.59
2018-07-24T04:42:01.989Z,98439.29
2018-07-24T04:44:31.188Z,98438.54
2018-07-24T04:47:00.459Z,98442.94
2018-07-24T04:49:29.680Z,98443.76
2018-07-24T04:51:58.865Z,98444.23
2018-07-24T04:54:27.976Z,98448.10
2018-07-24T04:56:57.316Z,98448.81
2018-07-24T04:59:26.433Z,98451.36
2018-07-24T05:01:55.608Z,98459.37
2018-07-24T05:04:24.775Z,98457.86
2018-07-24T05:06:53.964Z,98461.63
2018-07-24T05:09:23.092Z,98455.20
2018-07-24T05:11:52.268Z,98458.31
2018-07-24T05:14:24.666Z,98453.20
2018-07-24T05:16:56.585Z,98449.34
2018-07-24T05:19:25.890Z,98454.40
2018-07-24T05:21:55.120Z,98451.05
2018-07-24T05:24:24.281Z,98454.30
2018-07-24T05:26:53.520Z,98453.25
2018-07-24T05:29:22.677Z,98459.23
2018-07-24T05:31:51.912Z,98451.30
2018-07-24T05:34:21.088Z,98450.31
2018-07-24T05:36:50.324Z,98453.09
2018-07-24T05:39:19.580Z,98452.85
2018-07-24T05:41:48.762Z,98454.13
2018-07-24T05:44:17.973Z,98455.74
2018-07-24T05:46:47.215Z,98461.28
2018-07-24T05:49:16.458Z,98458.41
2018-07-24T05:51:45.713Z,98465.47
2018-07-24T05:54:14.956Z,98468.50
2018-07-24T05:56:44.151Z,98466.79
2018-07-24T05:59:13.389Z,98461.91
2018-07-24T06:01:42.689Z,98466.43
2018-07-24T06:04:12.006Z,98458.39
2018-07-24T06:06:41.533Z,98454.75
2018-07-24T06:09:11.024Z,98450.97
2018-07-24T06:11:40.250Z,98453.71
2018-07-24T06:14:09.713Z,98463.38
2018-07-24T06:16:38.972Z,98452.97
2018-07-24T06:19:08.169Z,98456.97
2018-07-24T06:21:37.354Z,98449.44
2018-07-24T06:24:06.578Z,98450.31
2018-07-24T06:26:35.696Z,98448.20
2018-07-24T06:29:04.925Z,98450.27
2018-07-24T06:31:34.068Z,98452.48
2018-07-24T06:34:03.243Z,98449.80
2018-07-24T06:36:32.463Z,98444.66
2018-07-24T06:39:01.828Z,98443.94
2018-07-24T06:41:31.174Z,98441.43
2018-07-24T06:44:00.498Z,98441.59
2018-07-24T06:46:29.639Z,98437.13
2018-07-24T06:48:58.838Z,98437.36
2018-07-24T06:51:28.031Z,98438.42
2018-07-24T06:53:57.238Z,98433.13
2018-07-24T06:56:26.383Z,98429.16
2018-07-24T06:58:55.768Z,98424.00
2018-07-24T07:01:24.919Z,98428.84
2018-07-24T07:03:54.159Z,98426.22
2018-07-24T07:06:23.558Z,98427.65
2018-07-24T07:08:56.748Z,98427.66
2018-07-24T07:11:26.229Z,98424.98
2018-07-24T07:13:55.471Z,98429.30
2018-07-24T07:16:24.673Z,98428.49
2018-07-24T07:18:53.876Z,98428.78
2018-07-24T07:21:23.109Z,98433.11
2018-07-24T07:23:52.327Z,98429.06
2018-07-24T07:26:21.538Z,98426.94
2018-07-24T07:28:50.962Z,98426.11
2018-07-24T07:31:20.101Z,98427.47
2018-07-24T07:33:49.309Z,98422.58
2018-07-24T07:36:18.553Z,98421.75
2018-07-24T07:38:47.756Z,98417.41
2018-07-24T07:41:16.898Z,98417.13
2018-07-24T07:43:46.076Z,98410.09
2018-07-24T07:46:15.276Z,98417.64
2018-07-24T07:48:44.586Z,98416.26
2018-07-24T07:51:13.745Z,98418.90
2018-07-24T07:53:42.989Z,98411.00
2018-07-24T07:56:12.177Z,98413.92
2018-07-24T07:58:41.485Z,98404.97
2018-07-24T08:01:10.714Z,98407.05
2018-07-24T08:03:39.905Z,98403.09
2018-07-24T08:06:09.110Z,98404.94
2018-07-24T08:08:38.260Z,98404.09
2018-07-24T08:11:07.725Z,98403.86
2018-07-24T08:13:37.055Z,98403.31
2018-07-24T08:16:06.484Z,98402.77
2018-07-24T08:18:35.686Z,98403.81
2018-07-24T08:21:05.006Z,98400.84
2018-07-24T08:23:34.181Z,98394.49
2018-07-24T08:26:03.511Z,98401.30
2018-07-24T08:28:32.823Z,98385.77
2018-07-24T08:31:02.136Z,98394.34
2018-07-24T08:33:31.556Z,98391.19
2018-07-24T08:36:00.845Z,98391.73
2018-07-24T08:38:30.234Z,98390.07
2018-07-24T08:40:59.718Z,98393.58
2018-07-24T08:43:29.140Z,98396.58
2018-07-24T08:45:58.577Z,98391.92
2018-07-24T08:48:28.044Z,98388.20
2018-07-24T08:50:57.446Z,98388.27
2018-07-24T08:53:27.122Z,98391.37
2018-07-24T08:55:56.122Z,98380.23
2018-07-24T08:58:25.536Z,98387.69
2018-07-24T09:00:54.762Z,98381.77
2018-07-24T09:03:23.995Z,98385.89
2018-07-24T09:05:53.233Z,98388.19
2018-07-24T09:08:22.455Z,98387.19
2018-07-24T09:10:51.686Z,98382.03
2018-07-24T09:13:20.966Z,98381.93
2018-07-24T09:15:50.448Z,98380.73
2018-07-24T09:18:19.732Z,98380.65
2018-07-24T09:20:49.148Z,98377.92
2018-07-24T09:23:18.473Z,98244.70
2018-07-24T09:25:47.723Z,98372.14
2018-07-24T09:28:16.984Z,98374.69
2018-07-24T09:30:46.321Z,98363.30
2018-07-24T09:33:15.846Z,98374.41
2018-07-24T09:35:45.250Z,98364.58
2018-07-24T09:38:14.425Z,98365.86
2018-07-24T09:40:43.831Z,98362.88
2018-07-24T09:43:12.992Z,98368.09
2018-07-24T09:45:42.345Z,98360.96
2018-07-24T09:48:11.734Z,98359.34
2018-07-24T09:50:41.214Z,98361.92
2018-07-24T09:53:10.410Z,98358.00
2018-07-24T09:55:39.592Z,98356.73
2018-07-24T09:58:08.891Z,98354.60
2018-07-24T10:00:43.692Z,98351.70
2018-07-24T10:03:14.119Z,98349.25
2018-07-24T10:05:43.394Z,98354.19
2018-07-24T10:08:12.708Z,98352.41
2018-07-24T10:10:41.995Z,98347.27
2018-07-24T10:13:11.296Z,98341.77
2018-07-24T10:15:40.548Z,98343.83
2018-07-24T10:18:09.693Z,98338.98
2018-07-24T10:20:38.944Z,98337.84
2018-07-24T10:23:08.397Z,98335.72
2018-07-24T10:25:37.863Z,98329.81
2018-07-24T10:28:07.170Z,98335.02
2018-07-24T10:30:36.498Z,98328.78
2018-07-24T10:33:05.897Z,98329.61
2018-07-24T10:35:36.059Z,98329.77
2018-07-24T10:38:05.316Z,98325.46
2018-07-24T10:40:34.560Z,98321.81
2018-07-24T10:43:03.801Z,98320.55
2018-07-24T10:45:33.038Z,98314.66
2018-07-24T10:48:02.308Z,98302.83
2018-07-24T10:50:31.686Z,98306.01
2018-07-24T10:53:00.861Z,98300.75
2018-07-24T10:55:30.030Z,98303.73
2018-07-24T10:57:59.244Z,98302.69
2018-07-24T11:00:28.547Z,98301.75
2018-07-24T11:02:57.773Z,98295.03
2018-07-24T11:05:27.098Z,98305.53
2018-07-24T11:07:56.384Z,98294.75
2018-07-24T11:10:25.626Z,98289.84
2018-07-24T11:12:54.837Z,98288.94
2018-07-24T11:15:24.133Z,98281.39
2018-07-24T11:17:53.392Z,98277.29
2018-07-24T11:20:22.643Z,98285.33
2018-07-24T11:22:52.023Z,98277.31
2018-07-24T11:25:21.292Z,98280.52
2018-07-24T11:27:50.582Z,98270.66
2018-07-24T11:30:19.943Z,98268.88
2018-07-24T11:32:49.231Z,98263.34
2018-07-24T11:35:18.437Z,98265.71
2018-07-24T11:37:47.801Z,98269.43
2018-07-24T11:40:16.962Z,98268.30
2018-07-24T11:42:46.391Z,98265.44
2018-07-24T11:45:15.571Z,98260.43
2018-07-24T11:47:44.743Z,98264.97
2018-07-24T11:50:14.056Z,98262.83
2018-07-24T11:52:43.473Z,98255.98
2018-07-24T11:55:12.610Z,98260.41
2018-07-24T11:57:42.040Z,98265.11
2018-07-24T12:00:11.194Z,98245.83
2018-07-24T12:02:40.497Z,98244.68
2018-07-24T12:05:09.881Z,98238.60
2018-07-24T12:07:39.168Z,98236.03
2018-07-24T12:10:08.574Z,98230.09
2018-07-24T12:12:37.980Z,98234.09
2018-07-24T12:15:07.728Z,98228.05
2018-07-24T12:17:37.007Z,98219.47
2018-07-24T12:20:06.330Z,98220.85
2018-07-24T12:22:35.910Z,98216.98
2018-07-24T12:25:05.403Z,98220.48
2018-07-24T12:27:34.797Z,98213.41
2018-07-24T12:30:05.437Z,98210.22
2018-07-24T12:32:34.951Z,98206.73
2018-07-24T12:35:04.306Z,98211.03
2018-07-24T12:37:33.747Z,98209.33
2018-07-24T12:40:03.461Z,98208.32
2018-07-24T12:42:32.853Z,98205.55
2018-07-24T12:45:02.142Z,98205.81
2018-07-24T12:47:31.449Z,98201.73
2018-07-24T12:50:01.027Z,98201.28
2018-07-24T12:52:31.508Z,98198.09
2018-07-24T12:55:00.895Z,98196.41
2018-07-24T12:57:30.193Z,98198.84
2018-07-24T12:59:59.482Z,98201.80
2018-07-24T13:02:28.808Z,98197.91
2018-07-24T13:04:58.698Z,98195.39
2018-07-24T13:07:27.993Z,98194.31
2018-07-24T13:09:57.435Z,98187.09
2018-07-24T13:12:26.805Z,98183.22
2018-07-24T13:14:56.096Z,98185.63
2018-07-24T13:17:25.826Z,98187.40
2018-07-24T13:19:55.064Z,98187.66
2018-07-24T13:22:24.316Z,98137.95
2018-07-24T13:24:53.544Z,98179.80
2018-07-24T13:27:22.939Z,98177.82
2018-07-24T13:29:52.124Z,98180.62
2018-07-24T13:32:21.510Z,98175.12
2018-07-24T13:34:50.811Z,98174.88
2018-07-24T13:37:20.477Z,98173.08
2018-07-24T13:39:49.723Z,98132.25
2018-07-24T13:42:18.959Z,98179.33
2018-07-24T13:44:48.125Z,98166.40
2018-07-24T13:47:17.338Z,98165.43
2018-07-24T13:49:47.535Z,98168.83
2018-07-24T13:52:16.740Z,98168.06
2018-07-24T13:54:46.009Z,98160.06
2018-07-24T13:57:15.272Z,98163.14
2018-07-24T13:59:44.529Z,98163.12
2018-07-24T14:02:13.931Z,98163.72
2018-07-24T14:04:43.336Z,98160.27
2018-07-24T14:07:12.555Z,98155.91
2018-07-24T14:09:41.816Z,98151.13
2018-07-24T14:12:11.104Z,98153.67
2018-07-24T14:14:41.428Z,98154.82
2018-07-24T14:17:10.609Z,98152.44
2018-07-24T14:19:39.829Z,98150.86
2018-07-24T14:22:08.994Z,98147.05
2018-07-24T14:24:38.330Z,98146.51
2018-07-24T14:27:07.582Z,98142.17
2018-07-24T14:29:36.789Z,98143.76
2018-07-24T14:32:05.913Z,98139.78
2018-07-24T14:34:35.105Z,98135.20
2018-07-24T14:37:04.286Z,98128.59
2018-07-24T14:39:33.522Z,98136.00
2018-07-24T14:42:02.767Z,98125.27
2018-07-24T14:44:32.124Z,98134.05
2018-07-24T14:47:01.253Z,98125.62
2018-07-24T14:49:30.424Z,98123.03
2018-07-24T14:51:59.668Z,98119.27
2018-07-24T14:54:28.985Z,98119.27
2018-07-24T14:56:58.297Z,98122.23
2018-07-24T14:59:27.922Z,98122.45
2018-07-24T15:01:57.084Z,98114.20
2018-07-24T15:04:26.293Z,98118.91
2018-07-24T15:06:55.469Z,98118.77
2018-07-24T15:09:26.591Z,98117.05
2018-07-24T15:11:55.807Z,98118.32
2018-07-24T15:14:25.054Z,98109.59
2018-07-24T15:16:54.434Z,98113.11
2018-07-24T15:19:23.644Z,98119.83
2018-07-24T15:21:52.769Z,98111.41
2018-07-24T15:24:22.206Z,98110.59
2018-07-24T15:26:51.390Z,98104.31
2018-07-24T15:29:20.730Z,98101.81
2018-07-24T15:31:50.065Z,98103.48
2018-07-24T15:34:19.351Z,98096.14
2018-07-24T15:36:48.472Z,98097.27
2018-07-24T15:39:17.821Z,98101.48
2018-07-24T15:41:47.011Z,98105.13
2018-07-24T15:44:16.212Z,98096.32
2018-07-24T15:46:45.461Z,98102.11
2018-07-24T15:49:14.677Z,98092.89
2018-07-24T15:51:44.007Z,98099.11
2018-07-24T15:54:13.244Z,98093.23
2018-07-24T15:56:42.857Z,98093.44
2018-07-24T15:59:12.139Z,98096.42
2018-07-24T16:01:41.313Z,98095.97
2018-07-24T16:04:10.517Z,98095.55
2018-07-24T16:06:39.711Z,98092.13
2018-07-24T16:09:11.787Z,98096.48
2018-07-24T16:11:41.161Z,98085.41
2018-07-24T16:14:10.708Z,98094.64
2018-07-24T16:16:40.249Z,98085.42
2018-07-24T16:19:09.577Z,98097.12
2018-07-24T16:21:38.887Z,98095.63
2018-07-24T16:24:08.188Z,98093.67
2018-07-24T16:26:37.492Z,98085.86
2018-07-24T16:29:06.936Z,98083.22
2018-07-24T16:31:36.049Z,98096.96
2018-07-24T16:34:05.303Z,98084.02
2018-07-24T16:36:34.659Z,98087.80
2018-07-24T16:39:04.328Z,98088.61
2018-07-24T16:41:33.483Z,98087.13
2018-07-24T16:44:02.672Z,98040.27
2018-07-24T16:46:31.989Z,98090.25
2018-07-24T16:49:01.341Z,98094.23
2018-07-24T16:51:30.572Z,98085.38
2018-07-24T16:53:59.935Z,98085.06
2018-07-24T16:56:29.185Z,98090.52
2018-07-24T16:58:58.347Z,98083.69
2018-07-24T17:01:27.622Z,98085.06
2018-07-24T17:03:56.905Z,98081.73
2018-07-24T17:06:26.060Z,98088.68
2018-07-24T17:08:55.186Z,97968.56
2018-07-24T17:11:24.473Z,98087.31
2018-07-24T17:13:53.806Z,98086.84
2018-07-24T17:16:23.069Z,98087.76
2018-07-24T17:18:52.242Z,98085.27
2018-07-24T17:21:21.452Z,98083.66
2018-07-24T17:23:50.613Z,98079.08
2018-07-24T17:26:20.065Z,98088.19
2018-07-24T17:28:49.213Z,98082.38
2018-07-24T17:31:18.630Z,98080.12
2018-07-24T17:33:47.790Z,98076.84
2018-07-24T17:36:17.025Z,98084.10
2018-07-24T17:38:46.289Z,98081.63
2018-07-24T17:41:15.519Z,98082.93
2018-07-24T17:43:44.709Z,98078.57
2018-07-24T17:46:13.945Z,98080.25
2018-07-24T17:48:43.152Z,98081.47
2018-07-24T17:51:12.338Z,98086.89
2018-07-24T17:53:41.596Z,98089.02
2018-07-24T17:56:10.860Z,98085.32
2018-07-24T17:58:39.988Z,98087.42
2018-07-24T18:01:09.189Z,98086.20
2018-07-24T18:03:38.386Z,98086.44
2018-07-24T18:06:07.936Z,98087.52
2018-07-24T18:08:37.666Z,98090.27
2018-07-24T18:11:07.675Z,98091.12
2018-07-24T18:13:37.017Z,98090.63
2018-07-24T18:16:06.329Z,98093.47
2018-07-24T18:18:35.684Z,98100.08
2018-07-24T18:21:07.661Z,98100.42
2018-07-24T18:23:36.986Z,98097.40
2018-07-24T18:26:06.986Z,98102.94
2018-07-24T18:28:36.239Z,98102.47
2018-07-24T18:31:05.401Z,98104.63
2018-07-24T18:33:34.561Z,98103.27
2018-07-24T18:36:03.758Z,98101.67
2018-07-24T18:38:32.950Z,98101.80
2018-07-24T18:41:02.160Z,98098.44
2018-07-24T18:43:31.360Z,98101.72
2018-07-24T18:46:00.597Z,98106.48
2018-07-24T18:48:29.842Z,98106.59
2018-07-24T18:50:59.085Z,98104.45
2018-07-24T18:53:28.260Z,98108.93
2018-07-24T18:55:57.480Z,98110.44
2018-07-24T18:58:26.906Z,98108.66
2018-07-24T19:00:58.519Z,98110.91
2018-07-24T19:03:27.770Z,98109.88
2018-07-24T19:05:57.644Z,98108.84
2018-07-24T19:08:27.566Z,98114.41
2018-07-24T19:10:56.708Z,98117.23
2018-07-24T19:13:26.114Z,98117.94
2018-07-24T19:15:55.415Z,98112.04
2018-07-24T19:18:24.817Z,98117.78
2018-07-24T19:20:54.110Z,98117.05
2018-07-24T19:23:24.078Z,98121.92
2018-07-24T19:25:53.359Z,98123.88
2018-07-24T19:28:22.781Z,98123.98
2018-07-24T19:30:52.084Z,98074.64
2018-07-24T19:33:21.428Z,98128.69
2018-07-24T19:35:50.835Z,98126.55
2018-07-24T19:38:20.176Z,98132.21
2018-07-24T19:40:50.377Z,98139.07
2018-07-24T19:43:19.569Z,98137.62
2018-07-24T19:45:48.792Z,98139.88
2018-07-24T19:48:17.966Z,98148.75
2018-07-24T19:50:47.228Z,98149.45
2018-07-24T19:53:16.424Z,98149.84
2018-07-24T19:55:45.681Z,98146.44
2018-07-24T19:58:14.924Z,98148.93
2018-07-24T20:00:44.145Z,98146.45
2018-07-24T20:03:14.095Z,98147.54
2018-07-24T20:05:43.538Z,98151.63
2018-07-24T20:08:12.861Z,98154.33
2018-07-24T20:10:42.059Z,98156.41
2018-07-24T20:13:11.348Z,98154.88
2018-07-24T20:15:40.596Z,98160.58
2018-07-24T20:18:09.956Z,98157.11
2018-07-24T20:20:39.231Z,98159.66
2018-07-24T20:23:08.476Z,98162.16
2018-07-24T20:25:37.685Z,98162.46
2018-07-24T20:28:07.301Z,98163.28
2018-07-24T20:30:36.456Z,98164.89
2018-07-24T20:33:05.760Z,98165.16
2018-07-24T20:35:35.119Z,98165.27
2018-07-24T20:38:04.301Z,98161.80
2018-07-24T20:40:33.551Z,98167.49
2018-07-24T20:43:02.843Z,98170.73
2018-07-24T20:45:32.169Z,98174.16
2018-07-24T20:48:01.393Z,98169.06
2018-07-24T20:50:30.651Z,98169.87
2018-07-24T20:52:59.841Z,98177.72
2018-07-24T20:55:29.134Z,98173.46
2018-07-24T20:57:58.264Z,98177.80
2018-07-24T21:00:27.647Z,98177.07
2018-07-24T21:02:56.836Z,98176.05
2018-07-24T21:05:26.082Z,98180.90
2018-07-24T21:07:55.237Z,98173.91
2018-07-24T21:10:24.527Z,98172.85
2018-07-24T21:12:53.796Z,98176.36
2018-07-24T21:15:25.235Z,98173.39
2018-07-24T21:17:54.393Z,98175.07
2018-07-24T21:20:24.809Z,98176.70
2018-07-24T21:22:54.045Z,98182.14
2018-07-24T21:25:23.286Z,98177.84
2018-07-24T21:27:52.708Z,98177.04
2018-07-24T21:30:21.941Z,98182.80
2018-07-24T21:32:51.330Z,98173.63
2018-07-24T21:35:20.750Z,98176.60
2018-07-24T21:37:50.249Z,98178.48
2018-07-24T21:40:19.658Z,98185.52
2018-07-24T21:42:48.948Z,98184.80
2018-07-24T21:45:18.116Z,98187.05
2018-07-24T21:47:47.225Z,98181.05
2018-07-24T21:50:16.417Z,98183.50
2018-07-24T21:52:45.552Z,98185.13
2018-07-24T21:55:14.742Z,98192.94
2018-07-24T21:57:43.932Z,98187.30
2018-07-24T22:00:13.402Z,98191.05
2018-07-24T22:02:42.751Z,98191.08
2018-07-24T22:05:12.093Z,98188.13
2018-07-24T22:07:41.218Z,98193.79
2018-07-24T22:10:15.661Z,98197.27
2018-07-24T22:12:44.864Z,98194.87
2018-07-24T22:15:20.269Z,98196.45
2018-07-24T22:17:49.814Z,98198.60
2018-07-24T22:20:19.306Z,98192.15
2018-07-24T22:22:48.626Z,98190.56
2018-07-24T22:25:17.989Z,98194.86
2018-07-24T22:27:47.116Z,98196.47
2018-07-24T22:30:17.364Z,98203.73
2018-07-24T22:32:46.550Z,98198.34
2018-07-24T22:35:15.856Z,98201.82
2018-07-24T22:37:45.037Z,98202.63
2018-07-24T22:40:14.471Z,98205.05
2018-07-24T22:42:43.700Z,98201.83
2018-07-24T22:45:12.895Z,98205.04
2018-07-24T22:47:42.122Z,98199.89
2018-07-24T22:50:11.445Z,98199.87
2018-07-24T22:52:40.730Z,98204.18
2018-07-24T22:55:09.944Z,98201.47
2018-07-24T22:57:39.088Z,98203.63
2018-07-24T23:00:08.379Z,98199.29
2018-07-24T23:02:37.633Z,98206.79
2018-07-24T23:05:06.888Z,98205.41
2018-07-24T23:07:36.122Z,98207.28
2018-07-24T23:10:06.020Z,98204.88
2018-07-24T23:12:35.163Z,98210.50
2018-07-24T23:15:05.017Z,98213.44
2018-07-24T23:17:34.345Z,98217.45
2018-07-24T23:20:03.557Z,98223.15
2018-07-24T23:22:32.749Z,98218.27
2018-07-24T23:25:01.969Z,98217.34
2018-07-24T23:27:31.245Z,98215.72
2018-07-24T23:30:00.512Z,98232.67
2018-07-24T23:32:29.760Z,98214.88
2018-07-24T23:34:59.033Z,98211.28
2018-07-24T23:37:28.317Z,98210.77
2018-07-24T23:39:57.420Z,98210.47
2018-07-24T23:42:26.601Z,98213.69
2018-07-24T23:44:55.745Z,98211.28
2018-07-24T23:47:24.990Z,98209.77
2018-07-24T23:49:54.182Z,98213.30
2018-07-24T23:52:23.342Z,98216.47
2018-07-24T23:54:52.616Z,98213.76
2018-07-24T23:57:21.768Z,98212.72
2018-07-24T23:59:50.969Z,98211.61
